Terminal Aerodrome Forecast
Issued by NWS Wilmington, OH

Current Version | Previous Version | Graphics & Text | Print | Product List | Glossary On
Versions: 1 2 3 4 5 6 7 8 9 10 11 12 13 14 15 16 17 18 19 20 21 22 23 24 25 26 27 28 29 30 31 32 33 34 35
000
FTUS41 KILN 201500 AAA
TAFDAY
TAF AMD
KDAY 201501Z 2015/2112 21012KT P6SM VCSH BKN080
     FM201700 22012G20KT P6SM VCSH BKN040
      TEMPO 2018/2022 -SHRA
     FM210100 27007KT P6SM SCT030
     FM210500 30006KT 5SM BR OVC006=

USA.gov is the U.S. government's official web portal to all federal, state and local government web resources and services.